Time;durP1;ratioP1;P1;durP2;ratioP2;P2;SDS_P1;SDS_P2;PMS_P1;PMS_P2;Temp;Humidity;BMP_temperature;BMP_pressure;BME280_temperature;BME280_humidity;BME280_pressure;Samples;Min_cycle;Max_cycle;Signal;HPM_P1;HPM_P2
2021/10/03 00:01:39;;;;;;;7.63;5.13;;;24.20;52.20;;;;;;6221351;28;80428;-65
2021/10/03 00:04:40;;;;;;;8.40;6.20;;;24.10;52.10;;;;;;6221125;27;80467;-65
2021/10/03 00:07:41;;;;;;;9.63;6.43;;;24.10;52.10;;;;;;6229329;27;80352;-65
2021/10/03 00:10:41;;;;;;;8.60;6.22;;;24.10;52.10;;;;;;6230622;28;80513;-65
2021/10/03 00:13:42;;;;;;;7.90;5.78;;;24.20;52.20;;;;;;6227489;28;80361;-65
2021/10/03 00:16:42;;;;;;;7.25;5.75;;;24.20;52.20;;;;;;6226014;27;80556;-65
2021/10/03 00:19:43;;;;;;;9.02;5.75;;;24.10;52.10;;;;;;6229906;27;80342;-64
2021/10/03 00:22:43;;;;;;;9.73;5.85;;;24.10;52.10;;;;;;6229504;28;80734;-65
2021/10/03 00:25:44;;;;;;;11.45;7.20;;;24.20;51.70;;;;;;6227899;27;81395;-64
2021/10/03 00:28:44;;;;;;;7.55;5.88;;;24.20;51.90;;;;;;6233163;27;81025;-63
2021/10/03 00:31:45;;;;;;;7.82;6.53;;;24.20;51.80;;;;;;6235978;27;80954;-63
2021/10/03 00:34:46;;;;;;;8.02;6.55;;;24.20;51.90;;;;;;6234365;27;80639;-63
2021/10/03 00:37:46;;;;;;;8.80;6.05;;;24.20;52.00;;;;;;6234764;27;80646;-63
2021/10/03 00:40:47;;;;;;;8.23;6.00;;;24.10;51.70;;;;;;6233041;27;80489;-63
2021/10/03 00:43:47;;;;;;;9.60;6.85;;;24.10;51.80;;;;;;6233300;27;81081;-63
2021/10/03 00:46:48;;;;;;;10.85;6.55;;;24.10;51.80;;;;;;6234030;27;80463;-63
2021/10/03 00:49:48;;;;;;;12.52;6.90;;;24.10;51.90;;;;;;6234484;27;80671;-63
2021/10/03 00:52:49;;;;;;;10.60;7.28;;;24.10;51.80;;;;;;6234619;27;81288;-63
2021/10/03 00:55:49;;;;;;;11.85;6.90;;;24.10;51.60;;;;;;6230270;27;80490;-63
2021/10/03 00:58:50;;;;;;;10.05;7.30;;;24.10;51.70;;;;;;6232060;27;80983;-63
2021/10/03 01:01:50;;;;;;;12.90;7.72;;;24.10;51.80;;;;;;6234364;27;80575;-64
2021/10/03 01:04:51;;;;;;;10.85;7.38;;;24.10;51.70;;;;;;6230083;28;81626;-63
2021/10/03 01:07:51;;;;;;;9.63;6.88;;;24.10;51.70;;;;;;6230606;27;81639;-63
2021/10/03 01:10:52;;;;;;;10.32;7.18;;;24.10;51.80;;;;;;6226268;27;80561;-63
2021/10/03 01:13:52;;;;;;;8.73;6.07;;;24.10;51.90;;;;;;6232800;28;80543;-63
2021/10/03 01:16:53;;;;;;;10.45;6.97;;;24.10;51.90;;;;;;6231814;27;81232;-63
2021/10/03 01:19:53;;;;;;;9.20;6.68;;;24.10;51.80;;;;;;6226701;28;80506;-63
2021/10/03 01:22:54;;;;;;;10.27;7.50;;;24.10;51.80;;;;;;6232583;27;80000;-63
2021/10/03 01:25:54;;;;;;;9.90;7.18;;;24.10;51.70;;;;;;6229030;28;83134;-63
2021/10/03 01:28:55;;;;;;;10.10;7.07;;;24.10;51.70;;;;;;6223796;27;81422;-63
2021/10/03 01:31:55;;;;;;;10.23;7.25;;;24.10;51.60;;;;;;6228156;28;80543;-63
2021/10/03 01:34:56;;;;;;;10.38;6.80;;;24.20;51.60;;;;;;6234201;27;80513;-63
2021/10/03 01:37:56;;;;;;;11.00;7.45;;;24.20;51.60;;;;;;6239404;27;83187;-62
2021/10/03 01:40:57;;;;;;;9.10;7.07;;;24.20;51.50;;;;;;6234989;27;80735;-62
2021/10/03 01:43:58;;;;;;;12.95;6.88;;;24.20;51.60;;;;;;6230665;28;80468;-63
2021/10/03 01:46:58;;;;;;;10.45;7.47;;;24.20;51.50;;;;;;6231346;27;80597;-62
2021/10/03 01:49:59;;;;;;;17.52;7.47;;;24.10;51.50;;;;;;6231982;28;87828;-62
2021/10/03 01:52:59;;;;;;;12.85;7.20;;;24.10;51.30;;;;;;6197183;28;80485;-63
2021/10/03 01:56:00;;;;;;;12.85;7.53;;;24.10;51.40;;;;;;6204547;28;80515;-62
2021/10/03 01:59:00;;;;;;;9.13;7.25;;;24.10;51.40;;;;;;6231571;28;83161;-63
2021/10/03 02:02:01;;;;;;;11.85;7.30;;;24.10;51.30;;;;;;6233322;28;81108;-63
2021/10/03 02:05:01;;;;;;;8.38;6.90;;;24.10;51.20;;;;;;6226835;28;80861;-64
2021/10/03 02:08:02;;;;;;;10.48;7.55;;;24.10;51.10;;;;;;6231404;27;81142;-64
2021/10/03 02:11:02;;;;;;;23.65;8.35;;;24.10;51.10;;;;;;6231125;28;80828;-65
2021/10/03 02:14:03;;;;;;;12.10;8.50;;;24.10;50.90;;;;;;6232499;27;81616;-64
2021/10/03 02:17:06;;;;;;;11.02;7.82;;;24.10;51.00;;;;;;6230808;28;80522;-64
2021/10/03 02:20:06;;;;;;;11.02;8.27;;;24.10;51.00;;;;;;6220038;27;80472;-64
2021/10/03 02:23:07;;;;;;;14.23;8.25;;;24.10;50.80;;;;;;6228801;28;80441;-64
2021/10/03 02:26:07;;;;;;;8.18;6.72;;;24.10;50.90;;;;;;6233796;27;80741;-64
2021/10/03 02:29:08;;;;;;;13.07;7.15;;;24.10;51.10;;;;;;6231839;27;81498;-64
2021/10/03 02:32:08;;;;;;;9.98;7.25;;;24.00;50.70;;;;;;6232341;27;83348;-64
2021/10/03 02:35:09;;;;;;;9.98;7.28;;;24.00;50.90;;;;;;6232240;27;80585;-63
2021/10/03 02:38:09;;;;;;;12.02;7.82;;;24.10;51.00;;;;;;6231673;27;80511;-63
2021/10/03 02:41:10;;;;;;;10.30;6.78;;;24.10;51.10;;;;;;6226586;27;81036;-64
2021/10/03 02:44:11;;;;;;;10.48;7.35;;;24.10;51.10;;;;;;6223271;27;80518;-63
2021/10/03 02:47:12;;;;;;;10.80;7.25;;;24.10;51.10;;;;;;6228756;28;80512;-64
2021/10/03 02:50:13;;;;;;;10.98;6.95;;;24.10;51.00;;;;;;6230275;27;80378;-63
2021/10/03 02:53:13;;;;;;;12.13;7.65;;;24.10;51.00;;;;;;6230800;27;80794;-63
2021/10/03 02:56:14;;;;;;;10.18;6.90;;;24.10;50.90;;;;;;6222176;28;86569;-64
2021/10/03 02:59:15;;;;;;;9.27;7.30;;;24.10;51.20;;;;;;6232498;28;80509;-64
2021/10/03 03:02:15;;;;;;;9.52;6.85;;;24.10;50.90;;;;;;6235459;28;80927;-64
2021/10/03 03:05:16;;;;;;;9.35;7.10;;;24.10;50.90;;;;;;6227709;27;80234;-64
2021/10/03 03:08:16;;;;;;;9.50;6.88;;;24.20;51.00;;;;;;6227130;27;81052;-64
2021/10/03 03:11:17;;;;;;;8.65;6.55;;;24.20;50.90;;;;;;6226988;28;80692;-63
2021/10/03 03:14:17;;;;;;;9.82;6.43;;;24.10;50.70;;;;;;6230801;27;80917;-62
2021/10/03 03:17:18;;;;;;;9.57;6.95;;;24.20;50.90;;;;;;6232104;27;81337;-63
2021/10/03 03:20:18;;;;;;;10.35;7.63;;;24.20;50.70;;;;;;6231440;27;80573;-64
2021/10/03 03:23:19;;;;;;;11.15;6.80;;;24.20;50.90;;;;;;6232196;28;80518;-64
2021/10/03 03:26:19;;;;;;;10.48;6.35;;;24.20;50.80;;;;;;6218222;28;81723;-63
2021/10/03 03:29:20;;;;;;;10.10;6.75;;;24.30;50.90;;;;;;6227166;27;80693;-64
2021/10/03 03:32:20;;;;;;;8.73;6.93;;;24.30;50.90;;;;;;6230005;28;80812;-64
2021/10/03 03:35:21;;;;;;;10.45;6.93;;;24.20;50.90;;;;;;6224720;28;81590;-64
2021/10/03 03:38:21;;;;;;;8.88;6.25;;;24.30;50.80;;;;;;6230760;28;80510;-64
2021/10/03 03:41:22;;;;;;;9.27;6.13;;;24.20;50.80;;;;;;6230987;27;80254;-64
2021/10/03 03:44:22;;;;;;;7.75;6.30;;;24.30;50.70;;;;;;6229748;27;81204;-64
2021/10/03 03:47:23;;;;;;;8.43;6.32;;;24.30;50.70;;;;;;6230608;27;81892;-64
2021/10/03 03:50:23;;;;;;;11.20;6.32;;;24.30;50.60;;;;;;6221189;28;80469;-63
2021/10/03 03:53:24;;;;;;;10.18;6.88;;;24.30;50.70;;;;;;6228507;27;80538;-63
2021/10/03 03:56:24;;;;;;;8.80;5.90;;;24.30;50.60;;;;;;6233161;27;80390;-64
2021/10/03 03:59:25;;;;;;;9.50;6.18;;;24.30;50.70;;;;;;6235502;27;81400;-63
2021/10/03 04:02:26;;;;;;;9.23;6.45;;;24.30;50.70;;;;;;6245146;27;80322;-63
2021/10/03 04:05:26;;;;;;;9.02;6.18;;;24.30;50.60;;;;;;6238526;27;81629;-63
2021/10/03 04:08:27;;;;;;;8.77;6.55;;;24.30;50.50;;;;;;6238913;27;80563;-63
2021/10/03 04:11:27;;;;;;;9.68;6.53;;;24.30;50.60;;;;;;6241010;27;80663;-64
2021/10/03 04:14:28;;;;;;;8.85;6.15;;;24.30;50.50;;;;;;6245405;27;80346;-63
2021/10/03 04:17:28;;;;;;;9.82;6.72;;;24.30;50.30;;;;;;6234511;27;80638;-64
2021/10/03 04:20:29;;;;;;;9.27;6.00;;;24.40;50.40;;;;;;6238384;27;80316;-64
2021/10/03 04:23:29;;;;;;;8.45;5.57;;;24.30;50.20;;;;;;6237227;27;80371;-64
2021/10/03 04:26:30;;;;;;;8.40;6.57;;;24.30;50.10;;;;;;6236572;27;80536;-64
2021/10/03 04:29:30;;;;;;;10.65;6.32;;;24.40;50.30;;;;;;6236206;27;80550;-64
2021/10/03 04:32:31;;;;;;;10.30;6.35;;;24.40;50.20;;;;;;6239702;27;81978;-63
2021/10/03 04:35:31;;;;;;;7.72;5.95;;;24.30;50.10;;;;;;6237799;27;80457;-63
2021/10/03 04:38:32;;;;;;;7.80;6.07;;;24.30;50.20;;;;;;6237780;28;82342;-63
2021/10/03 04:41:32;;;;;;;9.85;6.32;;;24.30;50.00;;;;;;6228797;28;80685;-62
2021/10/03 04:44:33;;;;;;;13.45;7.00;;;24.30;50.00;;;;;;6237444;27;80302;-63
2021/10/03 04:47:33;;;;;;;9.57;6.68;;;24.30;50.20;;;;;;6238287;27;80834;-63
2021/10/03 04:50:34;;;;;;;11.80;6.75;;;24.20;50.40;;;;;;6234571;28;80359;-63
2021/10/03 04:53:34;;;;;;;9.00;6.50;;;24.20;50.10;;;;;;6237690;27;80548;-63
2021/10/03 04:56:35;;;;;;;9.43;6.65;;;24.20;49.90;;;;;;6234158;28;83601;-65
2021/10/03 04:59:35;;;;;;;8.75;6.03;;;24.20;49.80;;;;;;6236124;27;81482;-63
2021/10/03 05:02:36;;;;;;;7.97;6.13;;;24.20;49.60;;;;;;6236874;28;81174;-63
2021/10/03 05:05:36;;;;;;;9.48;7.07;;;24.20;50.00;;;;;;6237692;27;81735;-65
2021/10/03 05:08:37;;;;;;;8.48;6.03;;;24.20;49.90;;;;;;6236036;27;81615;-65
2021/10/03 05:11:38;;;;;;;7.40;5.50;;;24.20;50.70;;;;;;6218538;27;81581;-64
2021/10/03 05:14:38;;;;;;;14.43;6.78;;;24.20;50.50;;;;;;6232392;27;80911;-64
2021/10/03 05:17:39;;;;;;;14.75;6.22;;;24.20;50.60;;;;;;6232287;27;81037;-65
2021/10/03 05:20:39;;;;;;;10.55;5.88;;;24.20;50.90;;;;;;6233911;27;81076;-64
2021/10/03 05:23:40;;;;;;;13.65;6.72;;;24.20;50.80;;;;;;6226367;27;81634;-64
2021/10/03 05:26:41;;;;;;;10.88;6.38;;;24.20;50.80;;;;;;6235480;27;81242;-65
2021/10/03 05:29:41;;;;;;;10.68;6.80;;;24.30;50.80;;;;;;6233090;27;81191;-65
2021/10/03 05:32:42;;;;;;;10.95;6.95;;;24.20;50.70;;;;;;6231881;28;80425;-65
2021/10/03 05:35:43;;;;;;;107.97;41.60;;;24.20;51.00;;;;;;6222103;28;80194;-63
2021/10/03 05:38:45;;;;;;;299.02;112.65;;;24.20;51.00;;;;;;6217882;27;82789;-62
2021/10/03 05:41:45;;;;;;;235.02;93.85;;;24.20;51.50;;;;;;6221790;27;85501;-66
2021/10/03 05:44:46;;;;;;;193.95;75.65;;;24.20;51.80;;;;;;6221453;28;86115;-63
2021/10/03 05:47:46;;;;;;;372.58;144.48;;;24.20;51.40;;;;;;6228524;27;83285;-64
2021/10/03 05:50:47;;;;;;;418.63;160.15;;;24.20;51.40;;;;;;6226507;27;85586;-64
2021/10/03 05:53:47;;;;;;;337.10;131.70;;;24.20;51.50;;;;;;6220369;27;85483;-64
2021/10/03 05:56:48;;;;;;;314.38;119.60;;;24.20;51.60;;;;;;6223405;27;85691;-64
2021/10/03 05:59:48;;;;;;;290.63;111.25;;;24.30;51.90;;;;;;6224049;28;85793;-65
2021/10/03 06:02:49;;;;;;;261.52;100.72;;;24.20;51.60;;;;;;6224435;27;85663;-63
2021/10/03 06:05:49;;;;;;;238.90;93.30;;;24.20;51.40;;;;;;6230942;27;86514;-63
2021/10/03 06:08:50;;;;;;;205.05;84.25;;;24.30;51.70;;;;;;6230304;28;84927;-61
2021/10/03 06:11:50;;;;;;;198.98;77.63;;;24.20;51.80;;;;;;6227434;28;83571;-63
2021/10/03 06:14:51;;;;;;;177.40;68.38;;;24.30;52.10;;;;;;6230536;28;83021;-65
2021/10/03 06:17:52;;;;;;;165.95;65.05;;;24.30;52.20;;;;;;6226684;28;84078;-62
2021/10/03 06:20:52;;;;;;;158.90;63.55;;;24.30;52.20;;;;;;6229249;27;83374;-63
2021/10/03 06:23:53;;;;;;;140.52;56.47;;;24.30;52.10;;;;;;6225942;27;84145;-62
2021/10/03 06:26:53;;;;;;;131.30;52.67;;;24.30;52.90;;;;;;6223467;27;83215;-63
2021/10/03 06:29:54;;;;;;;124.20;48.88;;;24.30;52.10;;;;;;6219621;28;85352;-61
2021/10/03 06:32:55;;;;;;;121.88;48.35;;;24.30;52.20;;;;;;6224314;27;83108;-62
2021/10/03 06:35:56;;;;;;;108.57;43.95;;;24.40;52.20;;;;;;6229769;27;85284;-61
2021/10/03 06:38:56;;;;;;;109.90;46.53;;;24.30;52.00;;;;;;6229726;28;83702;-60
2021/10/03 06:41:57;;;;;;;112.22;44.63;;;24.40;52.20;;;;;;6229657;27;83581;-64
2021/10/03 06:44:57;;;;;;;97.20;40.97;;;24.30;52.10;;;;;;6224754;27;82939;-63
2021/10/03 06:47:58;;;;;;;101.93;41.05;;;24.40;52.20;;;;;;6228296;27;84172;-62
2021/10/03 06:50:58;;;;;;;95.40;39.50;;;24.40;52.70;;;;;;6229416;28;83303;-61
2021/10/03 06:53:59;;;;;;;87.97;36.70;;;24.40;53.10;;;;;;6226275;27;84544;-62
2021/10/03 06:56:59;;;;;;;79.20;33.13;;;24.40;53.60;;;;;;6223243;28;86063;-63
2021/10/03 07:00:01;;;;;;;75.30;31.80;;;24.40;54.10;;;;;;6229701;27;83012;-62
2021/10/03 07:03:02;;;;;;;75.13;32.25;;;24.40;54.00;;;;;;6223956;28;84334;-63
2021/10/03 07:06:02;;;;;;;73.47;30.50;;;24.40;53.70;;;;;;6223044;27;83447;-62
2021/10/03 07:09:03;;;;;;;60.10;28.50;;;24.40;54.00;;;;;;6221923;28;83757;-65
2021/10/03 07:12:03;;;;;;;63.15;28.95;;;24.40;54.00;;;;;;6214418;27;83747;-65
2021/10/03 07:15:04;;;;;;;61.75;26.90;;;24.40;54.20;;;;;;6225095;28;83282;-65
2021/10/03 07:18:04;;;;;;;69.32;27.20;;;24.50;54.60;;;;;;6225293;28;83495;-64
2021/10/03 07:21:05;;;;;;;50.90;25.83;;;24.40;55.00;;;;;;6216158;27;83142;-66
2021/10/03 07:24:05;;;;;;;61.03;26.05;;;24.50;55.60;;;;;;6214351;28;88547;-66
2021/10/03 07:27:06;;;;;;;47.88;25.02;;;24.50;55.50;;;;;;6220559;27;83323;-66
2021/10/03 07:30:07;;;;;;;48.63;24.38;;;24.60;55.80;;;;;;6218478;27;83447;-65
2021/10/03 07:33:07;;;;;;;55.63;25.10;;;24.60;55.80;;;;;;6220162;28;84163;-67
2021/10/03 07:36:08;;;;;;;52.15;24.98;;;24.70;56.00;;;;;;6217969;27;83846;-63
2021/10/03 07:39:08;;;;;;;56.40;26.15;;;24.70;56.90;;;;;;6221370;27;83379;-64
2021/10/03 07:42:09;;;;;;;45.63;23.23;;;24.70;56.90;;;;;;6217864;27;83287;-66
2021/10/03 07:45:09;;;;;;;39.92;20.13;;;24.80;56.80;;;;;;6218097;27;83294;-63
2021/10/03 07:48:10;;;;;;;35.45;17.67;;;24.70;55.40;;;;;;6216983;28;84695;-63
2021/10/03 07:51:10;;;;;;;28.02;16.35;;;24.70;54.70;;;;;;6224388;27;83868;-63
2021/10/03 07:54:11;;;;;;;27.55;14.93;;;24.70;53.10;;;;;;6224173;27;83236;-64
2021/10/03 07:57:12;;;;;;;23.13;14.57;;;24.70;52.60;;;;;;6217453;28;85798;-62
2021/10/03 08:00:12;;;;;;;23.33;13.48;;;24.70;51.80;;;;;;6220383;27;83376;-63
2021/10/03 08:03:13;;;;;;;21.48;12.57;;;24.70;51.70;;;;;;6223675;28;83352;-63
2021/10/03 08:06:15;;;;;;;22.13;12.50;;;24.70;51.10;;;;;;6218615;28;82895;-63
2021/10/03 08:09:15;;;;;;;20.15;12.82;;;24.70;50.60;;;;;;6219108;27;83038;-61
2021/10/03 08:12:16;;;;;;;20.27;10.98;;;24.70;50.60;;;;;;6216823;28;83512;-63
2021/10/03 08:15:16;;;;;;;20.63;11.55;;;24.60;50.50;;;;;;6221079;27;83985;-62
2021/10/03 08:18:17;;;;;;;23.00;11.68;;;24.70;50.20;;;;;;6216654;28;83418;-62
2021/10/03 08:21:17;;;;;;;56.95;12.00;;;24.70;50.20;;;;;;6220968;28;84413;-63
2021/10/03 08:24:19;;;;;;;17.00;10.30;;;24.70;50.60;;;;;;6225425;28;83746;-63
2021/10/03 08:27:20;;;;;;;16.83;10.48;;;24.70;50.70;;;;;;6223325;28;83403;-62
2021/10/03 08:30:21;;;;;;;20.70;11.40;;;24.80;50.80;;;;;;6220932;28;83571;-64
2021/10/03 08:33:21;;;;;;;16.88;10.27;;;24.80;51.00;;;;;;6224553;28;84017;-64
2021/10/03 08:36:22;;;;;;;18.73;10.85;;;24.80;51.50;;;;;;6220788;28;83432;-63
2021/10/03 08:39:22;;;;;;;21.83;11.07;;;24.80;51.30;;;;;;6222503;28;83897;-63
2021/10/03 08:42:23;;;;;;;17.77;10.38;;;24.90;51.60;;;;;;6219651;28;84360;-63
2021/10/03 08:45:23;;;;;;;17.30;10.63;;;24.90;51.80;;;;;;6229272;27;83351;-62
2021/10/03 08:48:24;;;;;;;16.95;9.80;;;24.90;51.60;;;;;;6224868;28;83144;-63
2021/10/03 08:51:24;;;;;;;18.25;9.68;;;24.90;51.60;;;;;;6231209;27;84235;-63
2021/10/03 08:54:25;;;;;;;17.50;10.23;;;24.80;51.20;;;;;;6230881;28;80682;-62
2021/10/03 08:57:25;;;;;;;15.20;9.93;;;24.90;50.80;;;;;;6225722;27;83336;-63
2021/10/03 09:00:27;;;;;;;14.48;9.32;;;24.90;50.30;;;;;;6226668;28;83165;-63
2021/10/03 09:03:27;;;;;;;17.02;10.63;;;24.80;50.10;;;;;;6223587;28;80738;-65
2021/10/03 09:06:28;;;;;;;16.42;9.73;;;24.80;49.90;;;;;;6228349;27;83072;-62
2021/10/03 09:09:28;;;;;;;12.70;9.55;;;24.70;50.20;;;;;;6227245;28;83984;-63
2021/10/03 09:12:29;;;;;;;14.52;9.65;;;24.70;50.80;;;;;;6231712;27;80254;-63
2021/10/03 09:15:31;;;;;;;15.85;9.50;;;24.70;50.80;;;;;;6230478;28;81113;-62
2021/10/03 09:18:32;;;;;;;15.35;9.70;;;24.70;50.60;;;;;;6220348;28;80358;-63
2021/10/03 09:21:32;;;;;;;15.85;10.02;;;24.70;50.50;;;;;;6220429;28;81447;-63
2021/10/03 09:24:33;;;;;;;12.65;9.05;;;24.80;56.00;;;;;;6220339;27;82801;-63
2021/10/03 09:27:33;;;;;;;12.77;8.57;;;24.80;51.70;;;;;;6224697;27;82794;-63
2021/10/03 09:30:35;;;;;;;13.55;8.30;;;24.80;52.20;;;;;;6228256;28;81570;-63
2021/10/03 09:33:35;;;;;;;14.48;8.02;;;24.80;51.90;;;;;;6229055;28;80352;-63
2021/10/03 09:36:36;;;;;;;11.13;8.13;;;24.80;53.70;;;;;;6227867;28;80598;-63
2021/10/03 09:39:37;;;;;;;14.63;8.60;;;24.90;54.20;;;;;;6228189;28;81116;-64
2021/10/03 09:42:37;;;;;;;21.15;11.07;;;24.90;53.40;;;;;;6229237;28;80855;-63
2021/10/03 09:45:38;;;;;;;17.17;9.05;;;24.90;54.70;;;;;;6222952;27;82902;-64
2021/10/03 09:48:38;;;;;;;15.60;10.27;;;24.90;52.40;;;;;;6227458;28;83659;-65
2021/10/03 09:51:39;;;;;;;13.02;7.65;;;25.00;51.10;;;;;;6226160;27;82825;-64
2021/10/03 09:54:39;;;;;;;11.20;6.85;;;25.00;47.20;;;;;;6230212;28;81767;-64
2021/10/03 09:57:40;;;;;;;9.23;5.70;;;25.00;44.50;;;;;;6228932;27;80504;-63
2021/10/03 10:00:40;;;;;;;11.13;5.90;;;25.00;43.50;;;;;;6230698;27;81156;-63
2021/10/03 10:03:41;;;;;;;9.05;5.90;;;25.00;42.20;;;;;;6226210;27;81336;-63
2021/10/03 10:06:43;;;;;;;8.73;5.38;;;25.00;42.00;;;;;;6229547;27;80542;-66
2021/10/03 10:09:44;;;;;;;7.60;4.97;;;24.90;39.50;;;;;;6232932;27;80238;-64
2021/10/03 10:12:44;;;;;;;7.03;5.00;;;24.80;39.10;;;;;;6230249;27;80969;-64
2021/10/03 10:15:45;;;;;;;7.82;5.13;;;24.80;38.40;;;;;;6226782;27;81613;-64
2021/10/03 10:18:46;;;;;;;10.38;4.68;;;24.80;38.10;;;;;;6224567;27;80811;-64
2021/10/03 10:21:46;;;;;;;8.35;4.68;;;24.80;37.80;;;;;;6232687;27;80776;-64
2021/10/03 10:24:47;;;;;;;6.20;4.50;;;24.80;37.70;;;;;;6228559;27;81522;-63
2021/10/03 10:27:48;;;;;;;8.55;4.03;;;24.90;37.30;;;;;;6226095;28;81238;-64
2021/10/03 10:30:48;;;;;;;6.75;3.95;;;24.90;37.50;;;;;;6229606;27;81309;-64
2021/10/03 10:33:49;;;;;;;11.45;4.40;;;24.90;37.20;;;;;;6223428;28;81678;-65
2021/10/03 10:36:50;;;;;;;4.75;4.03;;;24.90;37.50;;;;;;6226001;27;81072;-64
2021/10/03 10:39:51;;;;;;;9.15;4.28;;;24.90;37.40;;;;;;6229576;27;80759;-64
2021/10/03 10:42:51;;;;;;;9.18;4.88;;;25.00;38.30;;;;;;6226339;28;80602;-64
2021/10/03 10:45:52;;;;;;;8.10;4.28;;;25.00;38.40;;;;;;6227755;28;80990;-64
2021/10/03 10:48:52;;;;;;;6.40;4.32;;;25.10;39.40;;;;;;6222024;27;81410;-63
2021/10/03 10:51:53;;;;;;;4.57;4.07;;;25.10;38.60;;;;;;6229444;27;80283;-64
2021/10/03 10:54:53;;;;;;;105.15;33.55;;;25.10;39.00;;;;;;6228399;27;81458;-64
2021/10/03 10:57:57;;;;;;;193.88;64.65;;;25.10;39.10;;;;;;6226819;28;83924;-64
2021/10/03 11:01:01;;;;;;;72.65;26.35;;;25.10;39.00;;;;;;6228548;28;82759;-63
2021/10/03 11:04:01;;;;;;;83.78;32.50;;;25.10;38.30;;;;;;6221919;28;82936;-64
2021/10/03 11:07:02;;;;;;;141.85;50.47;;;25.10;38.80;;;;;;6222854;28;83158;-63
2021/10/03 11:10:03;;;;;;;180.90;65.28;;;25.00;38.50;;;;;;6219778;27;83962;-64
2021/10/03 11:13:03;;;;;;;133.48;47.13;;;25.00;39.80;;;;;;6223813;28;83428;-63
2021/10/03 11:16:04;;;;;;;109.43;39.50;;;25.10;39.20;;;;;;6225228;27;83948;-63
2021/10/03 11:19:06;;;;;;;57.00;20.95;;;25.10;39.20;;;;;;6223170;28;88884;-63
2021/10/03 11:22:06;;;;;;;39.80;16.90;;;25.20;40.10;;;;;;6219725;27;83404;-64
2021/10/03 11:25:07;;;;;;;21.75;9.50;;;25.20;40.30;;;;;;6215544;28;84019;-64
2021/10/03 11:28:07;;;;;;;19.95;9.27;;;25.30;40.20;;;;;;6223954;27;82361;-64
2021/10/03 11:31:07;;;;;;;11.93;7.43;;;25.30;40.60;;;;;;6221882;28;81381;-65
2021/10/03 11:34:08;;;;;;;10.20;6.13;;;25.30;40.00;;;;;;6221636;28;80641;-64
2021/10/03 11:37:09;;;;;;;10.38;5.97;;;25.30;40.00;;;;;;6225270;28;80948;-64
2021/10/03 11:40:11;;;;;;;9.77;6.20;;;25.40;40.90;;;;;;6229918;28;87574;-63
2021/10/03 11:43:12;;;;;;;10.00;5.32;;;25.40;40.70;;;;;;6226687;27;80558;-63
2021/10/03 11:46:12;;;;;;;8.85;5.40;;;25.50;40.50;;;;;;6226564;27;80974;-63
2021/10/03 11:49:13;;;;;;;7.72;5.28;;;25.50;41.00;;;;;;6224753;28;80624;-64
2021/10/03 11:52:14;;;;;;;10.48;5.75;;;25.50;41.10;;;;;;6223971;28;81275;-64
2021/10/03 11:55:15;;;;;;;10.15;4.80;;;25.50;41.00;;;;;;6223544;27;80949;-63
2021/10/03 11:58:19;;;;;;;9.38;5.05;;;25.40;40.20;;;;;;6222918;28;83174;-63
2021/10/03 12:01:19;;;;;;;9.85;4.97;;;25.30;40.90;;;;;;6224734;28;87991;-63
2021/10/03 12:04:20;;;;;;;7.72;5.10;;;25.40;40.70;;;;;;6220419;27;83045;-63
2021/10/03 12:07:20;;;;;;;6.13;4.80;;;25.30;40.40;;;;;;6219845;28;80486;-63
2021/10/03 12:10:21;;;;;;;7.43;4.32;;;25.30;40.30;;;;;;6229422;28;80233;-63
2021/10/03 12:13:21;;;;;;;10.35;5.07;;;25.30;40.70;;;;;;6223578;28;81364;-65
2021/10/03 12:16:22;;;;;;;7.10;4.70;;;25.40;41.10;;;;;;6226404;28;81721;-64
2021/10/03 12:19:22;;;;;;;10.07;4.78;;;25.50;41.10;;;;;;6233379;28;80118;-65
2021/10/03 12:22:23;;;;;;;9.48;4.65;;;25.50;40.60;;;;;;6235883;28;81103;-64
2021/10/03 12:25:23;;;;;;;5.57;4.20;;;25.50;40.80;;;;;;6226694;27;80448;-63
2021/10/03 12:28:24;;;;;;;8.30;4.40;;;25.50;40.60;;;;;;6232224;27;80286;-63
2021/10/03 12:31:25;;;;;;;11.00;4.95;;;25.60;41.30;;;;;;6203840;27;86303;-64
2021/10/03 12:34:26;;;;;;;5.60;4.25;;;25.60;41.30;;;;;;6203265;28;81435;-65
2021/10/03 12:37:32;;;;;;;8.70;4.65;;;25.60;40.40;;;;;;6226303;28;82534;-64
2021/10/03 12:40:32;;;;;;;8.27;4.55;;;25.60;40.70;;;;;;6228328;28;81169;-64
2021/10/03 12:43:33;;;;;;;11.65;4.85;;;25.60;41.30;;;;;;6228790;28;81067;-65
2021/10/03 12:46:35;;;;;;;5.35;4.43;;;25.70;41.60;;;;;;6232525;28;80646;-64
2021/10/03 12:49:35;;;;;;;6.53;4.30;;;25.70;41.70;;;;;;6241532;27;81761;-65
2021/10/03 12:52:36;;;;;;;10.50;4.28;;;25.80;41.40;;;;;;6224340;28;80243;-67
2021/10/03 12:55:36;;;;;;;7.03;4.38;;;25.80;40.80;;;;;;6228349;28;80976;-63
2021/10/03 12:58:37;;;;;;;6.32;4.18;;;25.90;40.60;;;;;;6230186;27;80456;-66
2021/10/03 13:01:37;;;;;;;6.88;4.40;;;25.80;40.50;;;;;;6224682;28;80676;-66
2021/10/03 13:04:38;;;;;;;5.65;3.85;;;25.80;40.80;;;;;;6229917;27;80837;-66
2021/10/03 13:07:38;;;;;;;9.75;3.72;;;25.90;41.20;;;;;;6233201;27;80686;-64
2021/10/03 13:10:41;;;;;;;6.85;4.20;;;25.80;40.70;;;;;;6223065;27;80515;-65
2021/10/03 13:13:41;;;;;;;7.90;3.95;;;25.80;41.60;;;;;;6231721;28;83650;-65
2021/10/03 13:16:42;;;;;;;5.43;3.85;;;25.80;40.90;;;;;;6226702;27;81434;-64
2021/10/03 13:19:42;;;;;;;15.63;4.13;;;25.70;40.30;;;;;;6221816;27;80807;-64
2021/10/03 13:22:43;;;;;;;5.55;3.70;;;25.70;40.50;;;;;;6222350;27;80330;-65
2021/10/03 13:25:43;;;;;;;5.88;4.07;;;25.70;40.30;;;;;;6231446;28;81744;-65
2021/10/03 13:28:44;;;;;;;5.20;4.05;;;25.70;40.00;;;;;;6227061;27;80437;-64
2021/10/03 13:31:44;;;;;;;4.88;3.83;;;25.60;40.10;;;;;;6227279;27;83144;-64
2021/10/03 13:34:45;;;;;;;7.82;4.38;;;25.60;40.10;;;;;;6219806;27;80723;-64
2021/10/03 13:37:45;;;;;;;5.72;4.40;;;25.70;40.40;;;;;;6221706;28;82694;-64
2021/10/03 13:40:46;;;;;;;10.27;4.00;;;25.70;40.60;;;;;;6226606;27;80537;-65
2021/10/03 13:43:46;;;;;;;8.07;4.82;;;25.70;40.50;;;;;;6223173;28;81603;-66
2021/10/03 13:46:47;;;;;;;5.20;4.00;;;25.60;39.90;;;;;;6228380;27;80590;-66
2021/10/03 13:49:47;;;;;;;5.80;4.00;;;25.70;40.30;;;;;;6228766;27;80648;-65
2021/10/03 13:52:48;;;;;;;5.45;3.85;;;25.60;40.00;;;;;;6230059;27;80474;-65
2021/10/03 13:55:48;;;;;;;8.60;4.10;;;25.70;40.60;;;;;;6230143;28;80302;-65
2021/10/03 13:58:49;;;;;;;7.50;4.13;;;25.70;40.80;;;;;;6222449;27;82049;-66
2021/10/03 14:01:49;;;;;;;11.23;4.30;;;25.60;40.70;;;;;;6201290;27;81612;-64
2021/10/03 14:04:50;;;;;;;7.30;4.18;;;25.70;40.90;;;;;;6221693;28;80988;-64
2021/10/03 14:07:50;;;;;;;7.93;4.55;;;25.70;41.20;;;;;;6226878;27;80184;-65
2021/10/03 14:10:51;;;;;;;7.22;3.88;;;25.70;41.10;;;;;;6233490;27;80448;-64
2021/10/03 14:13:51;;;;;;;10.27;4.20;;;25.70;41.50;;;;;;6229519;28;81369;-66
2021/10/03 14:16:52;;;;;;;6.60;4.50;;;25.70;41.00;;;;;;6223041;28;81154;-63
2021/10/03 14:19:52;;;;;;;6.75;3.72;;;25.60;40.30;;;;;;6219457;27;80200;-64
2021/10/03 14:22:53;;;;;;;10.35;4.65;;;25.60;39.90;;;;;;6229570;27;80376;-63
2021/10/03 14:25:54;;;;;;;7.97;4.43;;;25.60;40.40;;;;;;6226550;27;80351;-64
2021/10/03 14:28:54;;;;;;;10.63;4.75;;;25.50;40.10;;;;;;6231908;28;81387;-66
2021/10/03 14:31:55;;;;;;;19.67;6.03;;;25.50;40.40;;;;;;6231858;28;82200;-65
2021/10/03 14:34:55;;;;;;;8.05;5.03;;;25.80;41.40;;;;;;6225385;27;80199;-63
2021/10/03 14:37:56;;;;;;;9.38;5.82;;;26.30;40.60;;;;;;6233216;28;80378;-61
2021/10/03 14:40:56;;;;;;;11.88;4.93;;;26.10;40.30;;;;;;6231219;27;80449;-67
2021/10/03 14:43:57;;;;;;;14.73;4.40;;;26.00;40.30;;;;;;6231698;27;80694;-64
2021/10/03 14:46:57;;;;;;;16.38;4.75;;;25.90;40.10;;;;;;6232339;27;80756;-64
2021/10/03 14:50:00;;;;;;;8.60;4.85;;;25.90;39.90;;;;;;6218115;28;80991;-63
2021/10/03 14:53:01;;;;;;;9.35;4.72;;;25.70;39.90;;;;;;6228939;27;82529;-64
2021/10/03 14:56:01;;;;;;;8.27;4.50;;;25.70;39.80;;;;;;6226421;28;80490;-63
2021/10/03 14:59:02;;;;;;;9.25;4.78;;;25.60;40.20;;;;;;6226979;27;80567;-62
2021/10/03 15:02:02;;;;;;;7.18;5.03;;;25.50;40.20;;;;;;6227121;27;80651;-63
2021/10/03 15:05:06;;;;;;;6.30;5.00;;;25.50;40.40;;;;;;6225206;28;81336;-64
2021/10/03 15:08:07;;;;;;;7.85;5.05;;;25.50;40.70;;;;;;6228794;27;80479;-66
2021/10/03 15:11:07;;;;;;;9.27;4.72;;;25.50;40.90;;;;;;6229590;28;82733;-63
2021/10/03 15:14:09;;;;;;;8.27;5.38;;;25.40;40.80;;;;;;6218010;28;80533;-64
2021/10/03 15:17:09;;;;;;;6.15;4.97;;;25.30;40.40;;;;;;6226379;28;80433;-64
2021/10/03 15:20:10;;;;;;;6.25;4.72;;;25.30;40.90;;;;;;6232978;27;80806;-63
2021/10/03 15:23:10;;;;;;;6.82;4.45;;;25.20;40.40;;;;;;6231250;27;80446;-63
2021/10/03 15:26:11;;;;;;;7.45;5.50;;;25.20;40.70;;;;;;6225886;27;80955;-66
2021/10/03 15:29:11;;;;;;;12.27;5.07;;;25.20;40.70;;;;;;6226325;27;80607;-63